ADDS METAR Data INFO
IDs: Format: Raw Decoded Include TAF

Data at: 1526 UTC 18 Jun 2018

KFIT 181452Z AUTO 24005G16KT 10SM CLR 29/20 A2990 RMK AO2 SLP123 T02940200 58019
KFIT 181352Z AUTO VRB05KT 10SM CLR 27/19 A2992 RMK AO2 SLP130 T02720189
KFIT 181252Z AUTO 16004KT 10SM CLR 24/18 A2994 RMK AO2 SLP136 T02390178
KFIT 181152Z AUTO 15004KT 10SM CLR 23/17 A2996 RMK AO2 SLP142 T02280167 10233 20189 58012
KFIT 181052Z AUTO 00000KT 10SM CLR 22/16 A2997 RMK AO2 SLP147 T02170156
KFIT 180952Z AUTO 00000KT 10SM CLR 19/15 A2998 RMK AO2 SLP151 T01890150
KFIT 180852Z AUTO 00000KT 10SM CLR 20/14 A2999 RMK AO2 SLP154 T02000144 56013
KFIT 180752Z AUTO 00000KT 10SM CLR 23/13 A2999 RMK AO2 SLP155 T02280133
KFIT 180652Z AUTO VRB05KT 10SM CLR 23/12 A3001 RMK AO2 SLP159 T02280117
KFIT 180552Z AUTO 25009G14KT 10SM CLR 23/11 A3003 RMK AO2 SLP167 T02330111 10250 20161 56003
KFIT 180452Z AUTO 20004KT 10SM CLR 22/12 A3003 RMK AO2 SLP167 T02170122 403170122
KFIT 180352Z AUTO 00000KT 10SM CLR 17/15 A3003 RMK AO2 SLP169 T01670150
KFIT 180252Z AUTO 00000KT 10SM CLR 18/15 A3004 RMK AO2 SLP171 T01830150 57006
KFIT 180152Z AUTO 00000KT 10SM CLR 21/15 A3005 RMK AO2 SLP175 T02060150
KFIT 180052Z AUTO 00000KT 10SM CLR 24/14 A3005 RMK AO2 SLP172 T02390139
KFIT 172352Z AUTO 11004KT 10SM CLR 25/13 A3006 RMK AO2 SLP177 T02500133 10317 20250 53001
KFIT 172252Z AUTO 12007KT 10SM CLR 27/13 A3005 RMK AO2 SLP176 T02720133
KFIT 172152Z AUTO 26006KT 10SM CLR 30/09 A3005 RMK AO2 SLP175 T03000094
KFIT 172052Z AUTO 21007KT 10SM FEW075 31/12 A3005 RMK AO2 SLP176 T03060122 51002
KFIT 171952Z AUTO 10SM CLR 32/11 A3005 RMK AO2 SLP173 T03170106
KFIT 171852Z AUTO 28007KT 10SM CLR 31/11 A3006 RMK AO2 SLP177 T03110111
KFIT 171752Z AUTO VRB03KT 10SM CLR 31/12 A3005 RMK AO2 SLP174 T03110122 10311 20217 58018
KFIT 171652Z AUTO 00000KT 10SM CLR 29/11 A3007 RMK AO2 SLP181 T02940111
KFIT 171552Z AUTO 34003KT 10SM CLR 29/11 A3008 RMK AO2 SLP186 T02890111
KFIT 171452Z AUTO 00000KT 10SM CLR 27/11 A3010 RMK AO2 SLP192 T02720111 51008
KFIT 171352Z AUTO 08003KT 10SM CLR 26/12 A3010 RMK AO2 SLP190 T02560117
KFIT 171252Z AUTO 00000KT 10SM CLR 24/13 A3009 RMK AO2 SLP189 T02440133
KFIT 171152Z AUTO 01003KT 10SM CLR 22/14 A3008 RMK AO2 SLP184 T02170139 10217 20122 53013
KFIT 171052Z AUTO 35006KT 10SM CLR 17/13 A3007 RMK AO2 SLP180 T01670133
KFIT 170952Z AUTO 00000KT 10SM CLR 13/12 A3005 RMK AO2 SLP174 T01330122
KFIT 170852Z AUTO 31003KT 10SM CLR 13/12 A3004 RMK AO2 SLP171 T01280117 51008
KFIT 170752Z AUTO 32004KT 10SM CLR 14/12 A3004 RMK AO2 SLP170 T01390117
KFIT 170652Z AUTO 32003KT 10SM CLR 14/12 A3003 RMK AO2 SLP167 T01440117
KFIT 170552Z AUTO 00000KT 10SM CLR 14/12 A3001 RMK AO2 SLP162 T01390117 10250 20133 58004
KFIT 170452Z AUTO 32004KT 10SM CLR 14/12 A3002 RMK AO2 SLP165 T01440117 402890111
KFIT 170352Z AUTO 35003KT 10SM CLR 16/12 A3003 RMK AO2 SLP166 T01560117